Time;durP1;ratioP1;P1;durP2;ratioP2;P2;SDS_P1;SDS_P2;PMS_P1;PMS_P2;Temp;Humidity;BMP_temperature;BMP_pressure;BME280_temperature;BME280_humidity;BME280_pressure;Samples;Min_cycle;Max_cycle;Signal;HPM_P1;HPM_P2
2022/12/17 13:06:39;;;;;;;62.80;27.77;;;;;;;-0.94;100.00;102518.84;5072410;28;20063;-50
2022/12/17 13:09:20;;;;;;;60.17;26.70;;;;;;;-1.02;100.00;102511.06;5072289;28;20106;-50
2022/12/17 13:11:55;;;;;;;60.42;28.23;;;;;;;-0.89;100.00;102512.03;5072401;28;20047;-51
2022/12/17 13:14:27;;;;;;;60.55;27.20;;;;;;;-0.86;100.00;102520.69;5072083;28;20048;-47
2022/12/17 13:17:01;;;;;;;61.00;28.15;;;;;;;-0.79;100.00;102524.19;5066605;28;20818;-48
2022/12/17 13:19:36;;;;;;;56.83;26.38;;;;;;;-0.87;100.00;102521.53;5070912;28;20066;-49
2022/12/17 13:22:26;;;;;;;59.65;27.48;;;;;;;-0.78;100.00;102519.88;5072275;28;20076;-51
2022/12/17 13:25:09;;;;;;;56.22;25.45;;;;;;;-0.98;100.00;102511.94;5072339;28;20564;-50
2022/12/17 13:27:40;;;;;;;;;;;;;;;-0.98;100.00;102514.50;5072345;28;20449;-48
2022/12/17 13:30:23;;;;;;;56.55;26.23;;;;;;;-1.05;100.00;102508.41;5071512;28;19920;-52
2022/12/17 13:33:05;;;;;;;59.97;26.95;;;;;;;-1.12;100.00;102509.22;5071839;28;20052;-50
2022/12/17 13:35:40;;;;;;;59.78;26.67;;;;;;;-1.12;100.00;102506.63;5072250;28;20080;-48
2022/12/17 13:38:18;;;;;;;59.63;26.75;;;;;;;-1.22;100.00;102508.25;5069029;28;20511;-50
2022/12/17 13:40:59;;;;;;;65.28;29.08;;;;;;;-1.11;100.00;102509.22;5068459;28;20955;-49
2022/12/17 13:43:42;;;;;;;62.17;27.77;;;;;;;-1.02;100.00;102508.47;5072199;28;20044;-52
2022/12/17 13:46:21;;;;;;;59.92;26.52;;;;;;;-0.95;100.00;102507.66;5072195;28;20475;-49
2022/12/17 13:48:55;;;;;;;58.85;26.95;;;;;;;-0.92;100.00;102510.28;5071941;28;20131;-48
2022/12/17 13:51:25;;;;;;;58.88;27.75;;;;;;;-0.91;100.00;102504.25;5071829;28;20076;-51
2022/12/17 13:53:55;;;;;;;64.78;28.30;;;;;;;-1.03;100.00;102501.56;5074241;28;20048;-49
2022/12/17 13:56:27;;;;;;;61.17;27.50;;;;;;;-1.10;100.00;102517.84;5075683;28;20049;-48
2022/12/17 13:58:58;;;;;;;64.75;27.48;;;;;;;-1.04;100.00;102511.03;5075712;28;20055;-48
2022/12/17 14:01:44;;;;;;;60.80;27.08;;;;;;;-1.24;100.00;102515.09;5074423;28;20495;-48
2022/12/17 14:04:20;;;;;;;63.58;27.33;;;;;;;-1.15;100.00;102509.19;5075109;28;20072;-47
2022/12/17 14:06:48;;;;;;;65.15;28.52;;;;;;;-1.13;100.00;102515.22;5075500;28;20316;-49
2022/12/17 14:09:19;;;;;;;62.38;28.08;;;;;;;-1.04;100.00;102507.56;5075132;28;20072;-49
2022/12/17 14:14:39;;;;;;;65.65;28.15;;;;;;;-1.15;100.00;102514.34;5072726;28;20387;-49
2022/12/17 14:17:17;;;;;;;64.78;28.27;;;;;;;-1.25;100.00;102515.97;5072774;28;20075;-51
2022/12/17 14:19:46;;;;;;;65.40;29.83;;;;;;;-1.16;100.00;102517.78;5071720;28;20380;-52
2022/12/17 14:22:22;;;;;;;64.70;27.77;;;;;;;-1.12;100.00;102515.22;5074410;28;20044;-49
2022/12/17 14:24:51;;;;;;;66.38;27.65;;;;;;;-1.17;100.00;102523.78;5074675;28;20049;-49
2022/12/17 14:27:24;;;;;;;65.90;27.90;;;;;;;-1.23;100.00;102519.44;5071827;28;20105;-50
2022/12/17 14:29:55;;;;;;;57.13;27.00;;;;;;;-1.28;100.00;102528.84;5072909;28;20087;-48
2022/12/17 14:32:26;;;;;;;60.35;27.83;;;;;;;-1.19;100.00;102534.09;5075197;28;20127;-50
2022/12/17 14:34:54;;;;;;;63.67;29.88;;;;;;;-1.25;100.00;102534.91;5075157;28;20110;-48
2022/12/17 14:37:28;;;;;;;61.25;27.40;;;;;;;-1.34;100.00;102539.97;5075007;28;20416;-49
2022/12/17 14:40:01;;;;;;;59.97;27.38;;;;;;;-1.49;100.00;102545.81;5074929;28;20052;-48
2022/12/17 14:42:31;;;;;;;58.20;27.10;;;;;;;-1.50;100.00;102541.50;5073259;28;20055;-49
2022/12/17 14:45:04;;;;;;;56.28;26.17;;;;;;;-1.52;100.00;102550.94;5071594;28;20518;-47
2022/12/17 14:47:34;;;;;;;57.53;26.85;;;;;;;-1.75;100.00;102560.97;5074272;28;20041;-51
2022/12/17 14:50:08;;;;;;;61.42;26.85;;;;;;;-1.62;100.00;102562.88;5074924;28;20453;-50
2022/12/17 14:52:40;;;;;;;62.67;28.33;;;;;;;-1.78;100.00;102563.50;5074827;28;20494;-47
2022/12/17 14:55:52;;;;;;;55.20;26.08;;;;;;;-1.74;100.00;102550.66;5074915;28;20102;-47
2022/12/17 14:58:23;;;;;;;60.38;28.45;;;;;;;-1.92;100.00;102551.28;5012531;28;20084;-46
2022/12/17 15:00:59;;;;;;;61.50;27.13;;;;;;;-1.97;100.00;102560.66;5012697;28;20504;-48
2022/12/17 15:03:29;;;;;;;60.75;26.17;;;;;;;-1.80;100.00;102554.88;5050005;28;20106;-47
2022/12/17 15:06:01;;;;;;;58.03;27.23;;;;;;;-1.87;100.00;102551.31;5071157;28;20041;-48
2022/12/17 15:08:34;;;;;;;60.47;27.90;;;;;;;-1.85;100.00;102556.50;5070785;28;20052;-49
2022/12/17 15:11:03;;;;;;;58.75;27.80;;;;;;;-1.84;100.00;102556.56;5074337;28;20564;-52
2022/12/17 15:13:31;;;;;;;60.58;28.50;;;;;;;-1.82;100.00;102562.59;5072670;28;20067;-47
2022/12/17 15:16:00;;;;;;;63.97;27.70;;;;;;;-1.80;100.00;102562.59;5070310;28;20040;-56
2022/12/17 15:18:28;;;;;;;57.47;26.10;;;;;;;-1.92;100.00;102564.19;5072771;28;20532;-56
2022/12/17 15:20:57;;;;;;;55.03;26.88;;;;;;;-1.82;100.00;102564.31;5071294;28;20055;-56
2022/12/17 15:23:25;;;;;;;62.22;26.98;;;;;;;-1.83;100.00;102567.72;5071337;28;20054;-50
2022/12/17 15:25:54;;;;;;;55.22;27.70;;;;;;;-1.89;100.00;102561.63;5074240;28;20449;-50
2022/12/17 15:28:23;;;;;;;59.03;27.42;;;;;;;-1.80;100.00;102576.38;5074155;28;20051;-47
2022/12/17 15:30:51;;;;;;;56.83;26.58;;;;;;;-1.86;100.00;102571.13;5073998;28;20056;-48
2022/12/17 15:33:23;;;;;;;55.72;26.60;;;;;;;-2.01;100.00;102568.34;5072133;28;20514;-56
2022/12/17 15:35:52;;;;;;;57.22;27.60;;;;;;;-1.88;100.00;102578.84;5071369;28;20076;-50
2022/12/17 15:38:23;;;;;;;54.45;26.67;;;;;;;-1.85;100.00;102584.88;5072847;28;20066;-50
2022/12/17 15:40:51;;;;;;;59.80;27.55;;;;;;;-2.03;100.00;102576.06;5069985;28;20097;-56
2022/12/17 15:43:18;;;;;;;57.78;28.17;;;;;;;-2.08;100.00;102578.53;5072475;28;20049;-56
2022/12/17 15:45:48;;;;;;;60.75;29.17;;;;;;;-2.12;100.00;102596.53;5073869;28;20044;-56
2022/12/17 15:48:18;;;;;;;60.88;28.38;;;;;;;-2.02;100.00;102585.50;5073693;28;20045;-49
2022/12/17 15:50:48;;;;;;;58.63;26.35;;;;;;;-2.06;100.00;102589.75;5073791;28;20495;-49
2022/12/17 15:53:16;;;;;;;48.85;25.70;;;;;;;-2.07;100.00;102585.44;5073692;28;20059;-46
2022/12/17 15:55:44;;;;;;;54.30;25.85;;;;;;;-2.11;100.00;102595.69;5073912;28;20720;-50
2022/12/17 15:58:12;;;;;;;56.65;28.00;;;;;;;-2.17;100.00;102588.72;5073518;28;20048;-48
2022/12/17 16:00:43;;;;;;;55.05;25.52;;;;;;;-2.09;100.00;102591.41;5073202;28;20044;-48
2022/12/17 16:03:11;;;;;;;57.63;27.42;;;;;;;-2.21;100.00;102595.53;5072433;28;20127;-47
2022/12/17 16:05:39;;;;;;;54.08;26.45;;;;;;;-2.13;100.00;102587.06;5069939;28;20481;-47
2022/12/17 16:08:09;;;;;;;54.38;26.33;;;;;;;-2.06;100.00;102594.03;5070532;28;20705;-46
2022/12/17 16:10:38;;;;;;;55.80;26.90;;;;;;;-2.05;100.00;102600.94;5073520;28;20060;-47
2022/12/17 16:13:06;;;;;;;54.95;26.23;;;;;;;-1.99;100.00;102605.31;5072927;28;20047;-56
2022/12/17 16:15:34;;;;;;;61.08;25.65;;;;;;;-2.01;100.00;102596.69;5070415;28;20148;-56
2022/12/17 16:18:02;;;;;;;57.92;26.65;;;;;;;-1.95;100.00;102597.66;5068694;28;20040;-55
2022/12/17 16:20:30;;;;;;;61.22;27.05;;;;;;;-2.04;100.00;102600.09;5072433;28;20055;-47
2022/12/17 16:22:59;;;;;;;50.97;25.27;;;;;;;-2.08;100.00;102612.06;5072977;28;20044;-56
2022/12/17 16:25:29;;;;;;;61.97;25.98;;;;;;;-2.15;100.00;102611.97;5073401;28;20048;-56
2022/12/17 16:27:59;;;;;;;53.97;25.75;;;;;;;-2.19;100.00;102608.47;5073325;28;20116;-56
2022/12/17 16:30:27;;;;;;;54.33;25.73;;;;;;;-2.35;100.00;102606.47;5072393;28;20048;-57
2022/12/17 16:32:57;;;;;;;56.58;26.10;;;;;;;-2.37;100.00;102609.03;5069464;28;20045;-55
2022/12/17 16:35:27;;;;;;;59.58;26.33;;;;;;;-2.49;100.00;102607.09;5071735;28;20080;-57
2022/12/17 16:37:55;;;;;;;53.25;25.70;;;;;;;-2.36;100.00;102610.75;5071672;28;20097;-55
2022/12/17 16:40:23;;;;;;;53.40;26.17;;;;;;;-2.34;100.00;102618.53;5072749;28;20127;-56
2022/12/17 16:42:52;;;;;;;58.60;26.75;;;;;;;-2.30;100.00;102612.59;5073061;28;20552;-55
2022/12/17 16:45:20;;;;;;;55.60;25.27;;;;;;;-2.49;100.00;102622.56;5071769;28;20057;-54
2022/12/17 16:47:49;;;;;;;49.83;23.88;;;;;;;-2.41;100.00;102625.28;5068890;28;20044;-55
2022/12/17 16:50:17;;;;;;;51.38;23.65;;;;;;;-2.48;100.00;102623.41;5071561;28;20047;-57
2022/12/17 16:52:46;;;;;;;54.78;24.55;;;;;;;-2.48;100.00;102623.41;5072562;28;20048;-56
2022/12/17 16:55:14;;;;;;;59.88;25.73;;;;;;;-2.49;100.00;102613.97;5072045;28;20118;-55
2022/12/17 16:57:42;;;;;;;52.13;24.40;;;;;;;-2.51;100.00;102618.22;5072163;28;20041;-55
2022/12/17 17:00:13;;;;;;;53.88;24.52;;;;;;;-2.60;100.00;102608.63;5071083;28;20119;-56
2022/12/17 17:02:41;;;;;;;59.55;24.63;;;;;;;-2.55;100.00;102615.59;5068939;28;20052;-54
2022/12/17 17:05:10;;;;;;;56.20;24.98;;;;;;;-2.54;100.00;102631.91;5071646;28;20123;-47
2022/12/17 17:07:38;;;;;;;54.78;24.83;;;;;;;-2.57;100.00;102627.56;5068632;28;20048;-50
2022/12/17 17:10:06;;;;;;;53.10;24.73;;;;;;;-2.51;100.00;102625.94;5068168;28;20056;-50
2022/12/17 17:12:34;;;;;;;49.35;24.20;;;;;;;-2.65;100.00;102625.72;5072205;28;20098;-49
2022/12/17 17:15:03;;;;;;;54.72;23.83;;;;;;;-2.61;100.00;102624.91;5072073;28;20101;-48
2022/12/17 17:17:32;;;;;;;53.97;24.08;;;;;;;-2.59;100.00;102633.53;5067796;28;20056;-50
2022/12/17 17:20:20;;;;;;;51.35;22.45;;;;;;;-2.51;100.00;102633.69;5069075;28;20094;-47
2022/12/17 17:22:48;;;;;;;50.85;23.30;;;;;;;-2.56;100.00;102634.47;5071988;28;20036;-51
2022/12/17 17:25:17;;;;;;;49.38;22.23;;;;;;;-2.58;100.00;102633.59;5070330;28;20040;-47
2022/12/17 17:27:45;;;;;;;51.40;23.95;;;;;;;-2.64;100.00;102623.16;5068636;28;20044;-48
2022/12/17 17:30:14;;;;;;;50.55;22.15;;;;;;;-2.90;100.00;102623.53;5075859;28;20068;-48
2022/12/17 17:32:43;;;;;;;47.55;20.55;;;;;;;-2.72;100.00;102622.16;5076401;28;20078;-50
2022/12/17 17:35:11;;;;;;;51.60;22.13;;;;;;;-2.78;100.00;102612.59;5076538;28;20048;-50
2022/12/17 17:37:39;;;;;;;48.40;23.30;;;;;;;-2.64;100.00;102620.56;5076140;28;20074;-49
2022/12/17 17:40:09;;;;;;;47.53;22.23;;;;;;;-2.68;100.00;102623.09;5074071;28;20561;-47
2022/12/17 17:42:37;;;;;;;47.25;22.20;;;;;;;-2.82;100.00;102625.38;5072282;28;20084;-48
2022/12/17 17:45:07;;;;;;;49.47;23.42;;;;;;;-2.74;100.00;102628.97;5075666;28;20052;-50
2022/12/17 17:47:35;;;;;;;52.65;23.33;;;;;;;-2.77;100.00;102631.50;5075976;28;20098;-50
2022/12/17 17:50:08;;;;;;;53.38;23.48;;;;;;;-2.83;100.00;102629.66;5076237;28;20110;-48
2022/12/17 17:52:36;;;;;;;51.22;23.77;;;;;;;-2.76;100.00;102623.78;5075875;28;20495;-48
2022/12/17 17:55:05;;;;;;;52.30;23.63;;;;;;;-2.72;100.00;102628.16;5076081;28;20600;-48
2022/12/17 17:57:33;;;;;;;51.70;22.85;;;;;;;-2.76;100.00;102631.50;5075654;28;20053;-51
2022/12/17 18:00:02;;;;;;;52.53;24.42;;;;;;;-2.66;100.00;102632.53;5075534;28;20032;-50
2022/12/17 18:02:30;;;;;;;51.38;23.15;;;;;;;-2.73;100.00;102636.75;5075682;28;20044;-49
2022/12/17 18:05:01;;;;;;;48.13;23.13;;;;;;;-2.84;100.00;102625.34;5075637;28;20048;-50
2022/12/17 18:07:30;;;;;;;49.47;22.92;;;;;;;-3.11;100.00;102628.25;5075637;28;20376;-46
2022/12/17 18:09:58;;;;;;;50.55;23.73;;;;;;;-2.87;100.00;102630.44;5073596;28;20048;-56
2022/12/17 18:15:12;;;;;;;49.72;24.02;;;;;;;-2.81;100.00;102645.16;5074570;28;20499;-55
2022/12/17 18:17:44;;;;;;;50.08;23.75;;;;;;;-2.80;100.00;102655.47;5073254;28;20045;-56
2022/12/17 18:20:12;;;;;;;55.55;25.10;;;;;;;-2.72;100.00;102655.63;5073398;28;20055;-56
2022/12/17 18:22:44;;;;;;;50.55;23.23;;;;;;;-2.72;100.00;102655.63;5074695;28;20052;-56
2022/12/17 18:25:13;;;;;;;;;;;;;;;-2.67;100.00;102660.84;5073492;28;20512;-55
2022/12/17 18:27:41;;;;;;;51.28;22.95;;;;;;;-2.81;100.00;102660.59;5071264;28;19921;-55
2022/12/17 18:30:10;;;;;;;54.30;24.08;;;;;;;-2.85;100.00;102666.53;5075664;28;20048;-55
2022/12/17 18:32:38;;;;;;;48.80;22.13;;;;;;;-2.87;100.00;102669.06;5073421;28;20056;-55
2022/12/17 18:35:07;;;;;;;48.22;22.45;;;;;;;-3.03;100.00;102667.03;5073895;28;20052;-54
2022/12/17 18:37:35;;;;;;;46.03;21.80;;;;;;;-3.02;100.00;102669.63;5075065;28;20040;-55
2022/12/17 18:40:07;;;;;;;52.63;23.08;;;;;;;-3.16;100.00;102671.94;5074011;28;20032;-55
2022/12/17 18:45:21;;;;;;;48.78;23.40;;;;;;;-3.03;100.00;102662.75;5053103;28;20048;-56
2022/12/17 18:47:50;;;;;;;49.05;22.83;;;;;;;-2.98;100.00;102663.72;5052160;28;20044;-56
2022/12/17 18:50:19;;;;;;;50.60;23.02;;;;;;;-3.06;100.00;102662.69;5054299;28;20044;-56
2022/12/17 18:52:47;;;;;;;54.38;23.77;;;;;;;-3.04;100.00;102658.44;5052916;28;20056;-56
2022/12/17 18:55:16;;;;;;;49.40;21.67;;;;;;;-3.02;100.00;102659.34;5053546;28;20068;-57
2022/12/17 18:57:44;;;;;;;48.72;21.23;;;;;;;-2.98;100.00;102666.28;5054926;28;20573;-55
2022/12/17 19:00:13;;;;;;;46.50;20.95;;;;;;;-3.01;100.00;102657.63;5065945;28;20117;-57
2022/12/17 19:02:42;;;;;;;48.97;22.50;;;;;;;-3.03;100.00;102659.31;5072113;28;20105;-56
2022/12/17 19:05:13;;;;;;;49.80;22.35;;;;;;;-3.18;100.00;102660.72;5075478;28;20534;-56
2022/12/17 19:07:41;;;;;;;50.30;21.55;;;;;;;-3.21;100.00;102668.38;5088153;28;20106;-56
2022/12/17 19:10:12;;;;;;;47.10;20.15;;;;;;;-3.30;100.00;102670.75;5094916;28;20089;-57
2022/12/17 19:12:42;;;;;;;51.03;22.50;;;;;;;-3.33;100.00;102666.41;5078972;28;20125;-55
2022/12/17 19:15:10;;;;;;;49.53;22.00;;;;;;;-3.27;100.00;102668.25;5073941;28;20056;-56
2022/12/17 19:17:38;;;;;;;47.53;21.15;;;;;;;-3.22;100.00;102674.34;5070903;28;20443;-57
2022/12/17 19:20:08;;;;;;;51.47;22.92;;;;;;;-3.14;100.00;102679.69;5073369;28;20048;-56
2022/12/17 19:22:36;;;;;;;47.72;21.52;;;;;;;-3.09;100.00;102683.22;5071778;28;20048;-56
2022/12/17 19:25:05;;;;;;;48.75;22.25;;;;;;;-3.14;100.00;102695.13;5071776;28;20052;-55
2022/12/17 19:27:33;;;;;;;43.58;22.52;;;;;;;-3.22;100.00;102689.81;5073950;28;20048;-56
2022/12/17 19:30:02;;;;;;;50.22;22.00;;;;;;;-3.46;100.00;102687.56;5074269;28;20045;-56
2022/12/17 19:32:31;;;;;;;50.78;20.98;;;;;;;-3.53;100.00;102678.84;5072712;28;20083;-56
2022/12/17 19:34:59;;;;;;;45.80;20.10;;;;;;;-3.45;100.00;102685.03;5073520;28;20052;-55
2022/12/17 19:37:27;;;;;;;46.42;21.23;;;;;;;-3.42;100.00;102687.66;5071740;28;20094;-55
2022/12/17 19:39:55;;;;;;;49.38;22.20;;;;;;;-3.52;100.00;102696.00;5071836;28;20087;-46
2022/12/17 19:42:27;;;;;;;50.78;20.27;;;;;;;-3.45;100.00;102694.44;5073329;28;20060;-48
2022/12/17 19:45:06;;;;;;;50.97;22.05;;;;;;;-3.53;100.00;102702.00;5073824;28;20052;-48
2022/12/17 19:47:34;;;;;;;47.28;21.38;;;;;;;-3.49;100.00;102708.06;5073614;28;20048;-48
2022/12/17 19:50:02;;;;;;;48.85;21.33;;;;;;;-3.37;100.00;102702.34;5072876;28;20540;-47
2022/12/17 19:52:30;;;;;;;50.55;20.13;;;;;;;-3.36;100.00;102702.38;5069218;28;20049;-49
2022/12/17 19:54:59;;;;;;;49.72;20.95;;;;;;;-3.44;100.00;102698.75;5069269;28;20052;-48
2022/12/17 19:57:27;;;;;;;50.67;22.08;;;;;;;-3.46;100.00;102698.72;5073009;28;20064;-49
2022/12/17 19:59:55;;;;;;;51.17;22.98;;;;;;;-3.67;100.00;102699.06;5073085;28;20048;-48
2022/12/17 20:02:24;;;;;;;50.72;21.58;;;;;;;-3.70;100.00;102703.31;5072969;28;20110;-50
2022/12/17 20:04:59;;;;;;;54.17;22.75;;;;;;;-3.68;100.00;102702.50;5073644;28;20049;-47
2022/12/17 20:07:27;;;;;;;51.00;22.92;;;;;;;-3.63;100.00;102698.31;5073191;28;20114;-49
2022/12/17 20:09:55;;;;;;;50.38;22.10;;;;;;;-3.55;100.00;102706.22;5073619;28;20037;-50
2022/12/17 20:12:23;;;;;;;54.55;22.38;;;;;;;-3.65;100.00;102701.72;5072964;28;20052;-49
2022/12/17 20:14:51;;;;;;;45.75;20.95;;;;;;;-3.75;100.00;102700.59;5071973;28;20055;-49
2022/12/17 20:17:20;;;;;;;50.45;21.65;;;;;;;-3.83;100.00;102702.13;5071936;28;20102;-49
2022/12/17 20:19:52;;;;;;;52.38;22.58;;;;;;;-3.81;100.00;102710.75;5072567;28;20041;-49
2022/12/17 20:22:21;;;;;;;54.95;22.58;;;;;;;-3.71;100.00;102710.13;5071140;28;20078;-49
2022/12/17 20:24:50;;;;;;;58.25;23.02;;;;;;;-3.66;100.00;102710.25;5072765;28;20123;-56
2022/12/17 20:27:18;;;;;;;56.30;22.98;;;;;;;-3.62;100.00;102700.06;5071368;28;20349;-56
2022/12/17 20:29:46;;;;;;;56.40;25.58;;;;;;;-3.66;100.00;102703.41;5070924;28;20045;-57
2022/12/17 20:32:18;;;;;;;55.85;23.65;;;;;;;-3.61;100.00;102701.81;5072440;28;20045;-58
2022/12/17 20:34:46;;;;;;;57.25;23.73;;;;;;;-3.60;100.00;102707.81;5072658;28;20093;-57
2022/12/17 20:37:15;;;;;;;68.32;26.15;;;;;;;-3.68;100.00;102707.66;5072829;28;20071;-56
2022/12/17 20:39:44;;;;;;;61.97;25.65;;;;;;;-3.70;100.00;102708.44;5072706;28;20832;-56
2022/12/17 20:42:12;;;;;;;60.10;24.80;;;;;;;-3.68;100.00;102712.78;5071264;28;20044;-56
2022/12/17 20:44:40;;;;;;;57.65;26.13;;;;;;;-3.68;100.00;102723.09;5071150;28;20439;-56
2022/12/17 20:47:08;;;;;;;62.88;26.42;;;;;;;-3.64;100.00;102714.59;5065239;28;20067;-56
2022/12/17 20:49:36;;;;;;;67.13;26.50;;;;;;;-3.68;100.00;102717.94;5072953;28;20102;-57
2022/12/17 20:52:04;;;;;;;70.47;27.80;;;;;;;-3.57;100.00;102724.19;5072831;28;20491;-57
2022/12/17 20:54:34;;;;;;;58.38;25.05;;;;;;;-3.65;100.00;102725.72;5072691;28;20403;-56
2022/12/17 20:57:02;;;;;;;69.72;26.95;;;;;;;-3.74;100.00;102728.06;5072551;28;20109;-56
2022/12/17 20:59:30;;;;;;;63.45;25.85;;;;;;;-3.86;100.00;102730.34;5071195;28;20179;-56
2022/12/17 21:01:58;;;;;;;61.20;26.55;;;;;;;-3.96;100.00;102724.97;5071567;28;20040;-55
2022/12/17 21:04:27;;;;;;;60.42;25.25;;;;;;;-3.89;100.00;102717.41;5072408;28;20060;-57
2022/12/17 21:06:55;;;;;;;58.38;24.77;;;;;;;-3.91;100.00;102718.25;5072453;28;20045;-56
2022/12/17 21:09:24;;;;;;;62.65;24.92;;;;;;;-3.87;100.00;102716.63;5070763;28;20075;-56
2022/12/17 21:11:53;;;;;;;61.58;25.83;;;;;;;-3.76;100.00;102720.31;5071082;28;20495;-55
2022/12/17 21:14:22;;;;;;;63.92;25.83;;;;;;;-3.70;100.00;102719.59;5071240;28;20048;-56
2022/12/17 21:16:50;;;;;;;65.22;26.40;;;;;;;-3.67;100.00;102718.81;5069639;28;20102;-56
2022/12/17 21:19:19;;;;;;;60.83;25.55;;;;;;;-3.65;100.00;102712.88;5056583;28;20036;-58
2022/12/17 21:21:47;;;;;;;56.42;25.40;;;;;;;-3.60;100.00;102721.56;5072284;28;20048;-57
2022/12/17 21:24:16;;;;;;;65.07;26.50;;;;;;;-3.62;100.00;102730.06;5072306;28;20055;-55
2022/12/17 21:26:45;;;;;;;59.75;26.23;;;;;;;-3.51;100.00;102722.63;5072746;28;20045;-58
2022/12/17 21:29:16;;;;;;;59.33;25.73;;;;;;;-3.57;100.00;102726.78;5071376;28;20625;-58
2022/12/17 21:31:46;;;;;;;57.72;25.40;;;;;;;-3.61;100.00;102719.81;5072467;28;20075;-56
2022/12/17 21:34:20;;;;;;;56.50;23.70;;;;;;;-3.69;100.00;102721.34;5070072;28;20059;-54
2022/12/17 21:36:48;;;;;;;62.97;25.67;;;;;;;-3.55;100.00;102723.38;5071064;28;20055;-55
2022/12/17 21:39:18;;;;;;;59.35;27.08;;;;;;;-3.71;100.00;102725.56;5072671;28;20048;-57
2022/12/17 21:43:00;;;;;;;52.92;25.15;;;;;;;-3.82;100.00;102727.00;5071884;28;20580;-56
2022/12/17 21:44:36;;;;;;;54.72;24.83;;;;;;;-3.88;100.00;102737.16;5070693;28;20048;-56
2022/12/17 21:47:05;;;;;;;58.55;26.08;;;;;;;-3.86;100.00;102748.34;5069721;28;20045;-56
2022/12/17 21:49:33;;;;;;;56.17;24.75;;;;;;;-3.91;100.00;102746.53;5072325;28;20074;-57
2022/12/17 21:52:02;;;;;;;57.15;25.13;;;;;;;-3.87;100.00;102751.72;5072223;28;20033;-56
2022/12/17 21:54:30;;;;;;;54.85;24.80;;;;;;;-3.93;100.00;102752.44;5071382;28;20041;-56
2022/12/17 21:56:58;;;;;;;58.35;24.23;;;;;;;-3.89;100.00;102749.13;5071219;28;20045;-56
2022/12/17 21:59:26;;;;;;;58.47;23.88;;;;;;;-3.96;100.00;102740.38;5070922;28;20115;-55
2022/12/17 22:01:56;;;;;;;56.70;26.23;;;;;;;-3.93;100.00;102737.91;5071481;28;20048;-56
2022/12/17 22:04:26;;;;;;;57.35;25.95;;;;;;;-3.89;100.00;102745.69;5067716;28;20143;-56
2022/12/17 22:06:54;;;;;;;65.80;26.75;;;;;;;-3.87;100.00;102750.06;5071011;28;20045;-57
2022/12/17 22:09:28;;;;;;;71.85;27.35;;;;;;;-3.86;100.00;102753.47;5070825;28;20475;-57
2022/12/17 22:15:02;;;;;;;66.45;27.00;;;;;;;-3.89;100.00;102763.69;5073977;28;20388;-56
2022/12/17 22:17:32;;;;;;;74.05;29.00;;;;;;;-3.82;100.00;102761.28;5074995;28;20044;-56
2022/12/17 22:20:00;;;;;;;74.72;26.65;;;;;;;-3.77;100.00;102764.84;5069965;28;20048;-57
2022/12/17 22:22:29;;;;;;;75.03;29.58;;;;;;;-3.72;100.00;102766.69;5073216;28;20082;-55
2022/12/17 22:24:57;;;;;;;73.65;28.05;;;;;;;-3.77;100.00;102764.00;5075035;28;20090;-56
2022/12/17 22:27:31;;;;;;;75.90;29.38;;;;;;;-3.77;100.00;102766.56;5074707;28;20044;-55
2022/12/17 22:33:01;;;;;;;67.78;27.98;;;;;;;-3.82;100.00;102763.00;5054303;28;20048;-58
2022/12/17 22:35:41;;;;;;;61.70;27.30;;;;;;;-3.79;100.00;102757.94;5072940;28;20124;-56
2022/12/17 22:38:29;;;;;;;62.88;25.55;;;;;;;-3.84;100.00;102749.25;5074489;28;20041;-55
2022/12/17 22:44:20;;;;;;;56.03;26.13;;;;;;;-3.89;100.00;102753.41;5073892;28;20052;-57
2022/12/17 22:47:08;;;;;;;55.85;25.17;;;;;;;-3.95;100.00;102764.41;5073142;28;20044;-55
2022/12/17 22:49:38;;;;;;;48.47;22.85;;;;;;;-4.03;100.00;102760.78;5074493;28;20044;-56
2022/12/17 22:52:07;;;;;;;52.22;23.25;;;;;;;-4.06;100.00;102756.41;5073485;28;20513;-56
2022/12/17 22:54:35;;;;;;;53.67;25.33;;;;;;;-4.11;100.00;102747.72;5072919;28;20525;-56
2022/12/17 22:57:03;;;;;;;53.63;24.85;;;;;;;-4.14;100.00;102747.63;5075224;28;20051;-54
2022/12/17 22:59:52;;;;;;;49.88;22.48;;;;;;;-4.20;100.00;102740.59;5075232;28;20502;-55
2022/12/17 23:02:20;;;;;;;50.00;24.77;;;;;;;-4.19;100.00;102746.63;5074984;28;20522;-56
2022/12/17 23:04:49;;;;;;;54.40;24.77;;;;;;;-4.20;100.00;102742.31;5073193;28;20106;-55
2022/12/17 23:07:18;;;;;;;49.85;22.88;;;;;;;-4.30;100.00;102746.34;5072654;28;20040;-55
2022/12/17 23:09:48;;;;;;;50.22;23.08;;;;;;;-4.26;100.00;102743.88;5074041;28;20040;-54
2022/12/17 23:15:02;;;;;;;50.83;23.83;;;;;;;-4.51;100.00;102756.88;5074826;28;20541;-56
2022/12/17 23:17:30;;;;;;;51.78;22.55;;;;;;;-4.51;100.00;102762.03;5073443;28;20483;-55
2022/12/17 23:19:59;;;;;;;58.20;23.80;;;;;;;-4.47;100.00;102751.00;5071679;28;20060;-56
2022/12/17 23:22:27;;;;;;;48.75;23.75;;;;;;;-4.52;100.00;102755.16;5073556;28;20074;-54
2022/12/17 23:24:55;;;;;;;49.70;22.67;;;;;;;-4.60;100.00;102742.97;5073140;28;20063;-55
2022/12/17 23:27:24;;;;;;;50.97;24.88;;;;;;;-4.66;100.00;102744.47;5073397;28;20036;-55
2022/12/17 23:29:52;;;;;;;48.55;22.77;;;;;;;-4.65;100.00;102743.66;5073275;28;20055;-54
2022/12/17 23:32:20;;;;;;;46.83;22.85;;;;;;;-4.61;100.00;102745.50;5071142;28;20143;-55
2022/12/17 23:34:48;;;;;;;48.88;24.25;;;;;;;-4.66;100.00;102749.63;5073458;28;20094;-54
2022/12/17 23:37:18;;;;;;;50.75;23.75;;;;;;;-4.70;100.00;102755.50;5072996;28;20052;-55
2022/12/17 23:39:46;;;;;;;48.70;22.98;;;;;;;-4.61;100.00;102756.66;5074322;28;20537;-55
2022/12/17 23:42:16;;;;;;;46.17;22.27;;;;;;;-4.63;100.00;102763.44;5072598;28;20060;-55
2022/12/17 23:44:44;;;;;;;44.88;22.13;;;;;;;-4.64;100.00;102768.53;5070864;28;20044;-55
2022/12/17 23:47:12;;;;;;;50.58;22.77;;;;;;;-4.77;100.00;102760.47;5073383;28;20518;-56
2022/12/17 23:49:40;;;;;;;46.80;23.05;;;;;;;-4.85;100.00;102755.91;5070443;28;20105;-55
2022/12/17 23:52:08;;;;;;;51.33;23.60;;;;;;;-4.82;100.00;102759.47;5072150;28;20507;-53
2022/12/17 23:54:38;;;;;;;47.78;22.65;;;;;;;-4.88;100.00;102766.09;5073960;28;20565;-54
2022/12/17 23:57:06;;;;;;;45.05;22.65;;;;;;;-4.88;100.00;102766.09;5074227;28;20475;-54
2022/12/17 23:59:34;;;;;;;54.83;24.00;;;;;;;-4.93;100.00;102764.28;5073921;28;20084;-55
